Time;durP1;ratioP1;P1;durP2;ratioP2;P2;SDS_P1;SDS_P2;PMS_P1;PMS_P2;Temp;Humidity;BMP_temperature;BMP_pressure;BME280_temperature;BME280_humidity;BME280_pressure;Samples;Min_cycle;Max_cycle;Signal;HPM_P1;HPM_P2
2022/01/21 00:01:14;;;;;;;17.77;4.07;;;;;;;4.32;77.69;103128.25;5033811;28;20053;-62
2022/01/21 00:03:42;;;;;;;16.73;3.78;;;;;;;4.36;77.79;103107.66;5035396;28;20045;-60
2022/01/21 00:06:10;;;;;;;18.20;4.68;;;;;;;4.49;77.76;103127.59;5017705;28;20058;-58
2022/01/21 00:08:39;;;;;;;18.42;4.63;;;;;;;4.08;77.86;103118.84;5035387;28;20049;-62
2022/01/21 00:11:09;;;;;;;21.70;4.05;;;;;;;4.08;78.39;103109.84;5033951;28;20045;-59
2022/01/21 00:13:37;;;;;;;23.60;5.10;;;;;;;3.98;78.36;103118.44;5035247;28;20069;-61
2022/01/21 00:16:12;;;;;;;20.02;3.85;;;;;;;3.94;78.73;103108.19;5035266;28;20065;-60
2022/01/21 00:18:43;;;;;;;20.83;3.97;;;;;;;4.01;78.64;103114.47;5034707;28;20050;-60
2022/01/21 00:32:15;;;;;;;17.58;4.95;;;;;;;4.22;78.26;103100.59;5033920;28;20433;-61
2022/01/21 00:34:42;;;;;;;24.50;5.70;;;;;;;4.11;78.96;103096.63;5033352;28;20076;-60
2022/01/21 00:37:10;;;;;;;23.33;5.63;;;;;;;4.18;78.84;103096.59;5033501;28;20053;-61
2022/01/21 00:39:40;;;;;;;20.02;4.93;;;;;;;4.09;79.15;103096.00;5030539;28;20050;-60
2022/01/21 00:44:52;;;;;;;21.23;5.45;;;;;;;4.07;79.27;103092.63;5019805;28;20060;-61
2022/01/21 00:47:20;;;;;;;15.27;5.57;;;;;;;3.97;79.44;103092.25;5034452;28;20053;-61
2022/01/21 00:49:47;;;;;;;18.42;5.25;;;;;;;4.17;79.09;103094.91;5035039;28;20053;-62
2022/01/21 00:52:15;;;;;;;21.08;6.40;;;;;;;4.00;79.25;103089.09;5033536;28;20049;-59
2022/01/21 00:54:42;;;;;;;19.48;5.03;;;;;;;3.96;79.43;103085.09;5033402;28;20042;-61
2022/01/21 00:57:10;;;;;;;20.70;4.55;;;;;;;4.11;79.51;103093.91;5034537;28;20049;-59
2022/01/21 00:59:38;;;;;;;20.23;4.88;;;;;;;4.26;77.84;103096.38;5034470;28;20046;-59
2022/01/21 01:02:06;;;;;;;19.52;4.32;;;;;;;4.07;78.48;103089.91;5034570;28;20499;-60
2022/01/21 01:04:33;;;;;;;21.65;5.50;;;;;;;4.10;78.87;103077.72;5034454;28;20038;-59
2022/01/21 01:07:02;;;;;;;20.02;5.13;;;;;;;3.97;79.10;103092.25;5033182;28;20508;-60
2022/01/21 01:09:32;;;;;;;;;;;;;;;3.99;79.38;103101.03;5017788;28;20064;-60
2022/01/21 01:20:03;;;;;;;15.02;4.55;;;;;;;4.29;78.80;103085.88;5034520;28;20049;-61
2022/01/21 01:22:45;;;;;;;18.88;4.68;;;;;;;4.26;77.78;103086.31;5033255;28;20516;-61
2022/01/21 01:27:59;;;;;;;17.85;4.53;;;;;;;3.87;80.05;103093.72;5033019;28;20053;-59
2022/01/21 01:30:28;;;;;;;20.70;5.18;;;;;;;3.73;80.72;103092.88;5032752;28;20054;-61
2022/01/21 01:32:58;;;;;;;19.58;5.25;;;;;;;3.90;80.35;103093.28;5033416;28;20503;-60
2022/01/21 01:35:28;;;;;;;18.90;4.60;;;;;;;3.93;80.35;103098.31;5033127;28;20049;-58
2022/01/21 01:51:11;;;;;;;24.65;5.80;;;;;;;3.84;81.29;103100.41;5034016;28;20128;-60
2022/01/21 01:54:02;;;;;;;26.08;5.07;;;;;;;3.98;80.37;103093.06;5033474;28;20400;-61
2022/01/21 01:56:34;;;;;;;28.80;5.38;;;;;;;3.74;81.00;103097.28;5036849;28;20057;-59
2022/01/21 01:59:03;;;;;;;23.95;5.15;;;;;;;3.62;81.45;103095.41;5053263;28;20058;-60
2022/01/21 02:01:30;;;;;;;21.88;5.53;;;;;;;3.85;81.49;103104.84;5038145;28;20428;-58
2022/01/21 02:03:58;;;;;;;24.45;5.70;;;;;;;3.61;82.01;103101.91;5035873;28;20049;-61
2022/01/21 02:06:26;;;;;;;18.58;5.30;;;;;;;3.63;81.51;103106.09;5037175;28;20054;-60
2022/01/21 02:08:53;;;;;;;19.98;4.82;;;;;;;3.61;81.59;103110.91;5036428;28;20053;-59
2022/01/21 02:11:20;;;;;;;20.70;4.70;;;;;;;3.64;81.53;103106.94;5036570;28;20521;-59
2022/01/21 02:13:55;;;;;;;19.02;4.85;;;;;;;3.81;81.75;103111.75;5020057;28;20527;-59
2022/01/21 02:21:43;;;;;;;19.55;4.90;;;;;;;3.39;82.58;103107.56;5017648;28;20057;-60
2022/01/21 02:24:18;;;;;;;20.55;5.25;;;;;;;3.52;82.41;103114.06;5016140;28;20042;-60
2022/01/21 02:26:47;;;;;;;17.65;5.10;;;;;;;3.38;82.35;103113.22;5016332;28;20054;-60
2022/01/21 02:29:26;;;;;;;16.73;3.88;;;;;;;3.47;83.09;103105.69;5016075;28;20061;-59
2022/01/21 02:31:57;;;;;;;23.80;4.97;;;;;;;3.45;82.66;103114.88;5000589;28;20055;-61
2022/01/21 02:34:25;;;;;;;19.23;5.50;;;;;;;3.55;82.36;103105.47;5032462;28;20053;-60
2022/01/21 02:36:53;;;;;;;23.05;5.32;;;;;;;3.68;81.87;103103.56;5004113;28;20080;-60
2022/01/21 02:39:21;;;;;;;25.40;6.15;;;;;;;3.46;82.31;103102.09;5032612;28;20058;-62
2022/01/21 02:41:48;;;;;;;21.60;5.55;;;;;;;3.63;82.61;103099.81;5032615;28;20046;-59
2022/01/21 02:44:17;;;;;;;30.88;5.38;;;;;;;3.69;81.79;103104.41;5017106;28;20038;-59
2022/01/21 02:46:54;;;;;;;23.05;5.15;;;;;;;3.38;82.59;103100.41;5015853;28;20117;-59
2022/01/21 02:49:22;;;;;;;27.73;5.15;;;;;;;3.23;83.24;103099.78;5026521;28;20053;-60
2022/01/21 02:51:54;;;;;;;20.58;5.32;;;;;;;3.35;83.44;103102.72;5035347;28;20404;-61
2022/01/21 02:54:21;;;;;;;25.00;5.95;;;;;;;3.37;82.87;103101.47;5036660;28;20511;-59
2022/01/21 02:56:49;;;;;;;19.98;4.80;;;;;;;3.52;82.83;103103.16;5036379;28;20049;-61
2022/01/21 02:59:16;;;;;;;21.35;4.90;;;;;;;3.80;81.94;103106.53;5034426;28;20068;-59
2022/01/21 03:01:44;;;;;;;22.83;5.28;;;;;;;3.63;81.86;103111.53;5035365;28;20053;-61
2022/01/21 03:04:18;;;;;;;17.58;5.05;;;;;;;3.73;81.54;103109.22;5035287;28;20056;-59
2022/01/21 03:06:45;;;;;;;25.15;5.28;;;;;;;3.69;81.31;103108.00;5033453;28;20052;-61
2022/01/21 03:09:13;;;;;;;19.33;5.07;;;;;;;3.79;81.51;103107.56;5047372;28;20057;-60
2022/01/21 03:11:40;;;;;;;22.35;5.10;;;;;;;3.64;81.53;103107.78;5035379;28;20053;-60
2022/01/21 03:14:07;;;;;;;22.40;5.35;;;;;;;3.55;81.19;103113.63;5047075;28;20044;-60
2022/01/21 03:16:35;;;;;;;16.13;5.07;;;;;;;3.58;81.98;103105.88;5054855;28;20060;-61
2022/01/21 03:19:02;;;;;;;17.67;4.75;;;;;;;3.52;81.63;103111.34;5041064;28;20060;-61
2022/01/21 03:21:29;;;;;;;22.88;5.22;;;;;;;3.57;82.24;103109.66;5053442;28;20495;-60
2022/01/21 03:23:57;;;;;;;24.75;5.03;;;;;;;3.47;82.62;103116.56;5036651;28;20523;-59
2022/01/21 03:26:27;;;;;;;24.70;5.10;;;;;;;3.35;82.75;103119.91;5006763;28;20042;-61
2022/01/21 03:28:57;;;;;;;27.85;5.55;;;;;;;3.35;82.96;103116.31;5023742;28;20053;-61
2022/01/21 03:31:26;;;;;;;23.02;5.68;;;;;;;3.24;83.58;103119.69;5031265;28;20046;-62
2022/01/21 03:33:54;;;;;;;21.67;4.68;;;;;;;3.05;84.18;103126.75;5048070;28;20053;-60
2022/01/21 03:36:21;;;;;;;20.02;5.60;;;;;;;3.16;84.55;103117.13;5054440;28;20049;-60
2022/01/21 03:38:49;;;;;;;19.67;5.60;;;;;;;3.12;84.25;103124.88;5037909;28;20049;-60
2022/01/21 03:41:18;;;;;;;25.25;5.30;;;;;;;2.99;84.88;103119.41;5034411;28;20049;-58
2022/01/21 03:43:45;;;;;;;22.80;5.20;;;;;;;2.97;85.17;103123.38;5034492;28;20057;-60
2022/01/21 03:46:13;;;;;;;28.67;6.30;;;;;;;3.26;85.06;103123.84;5034364;28;20049;-61
2022/01/21 03:48:41;;;;;;;23.50;5.47;;;;;;;3.47;83.31;103128.28;5035352;28;20049;-59
2022/01/21 03:51:08;;;;;;;24.90;5.70;;;;;;;3.26;83.48;103131.22;5033160;28;20412;-60
2022/01/21 03:53:36;;;;;;;18.60;4.93;;;;;;;3.24;83.51;103136.84;5049135;28;20053;-60
2022/01/21 03:56:03;;;;;;;25.90;5.85;;;;;;;3.42;83.04;103130.78;5053625;28;20052;-58
2022/01/21 03:58:30;;;;;;;20.98;4.93;;;;;;;3.11;84.10;103128.66;5033865;28;20057;-60
2022/01/21 04:00:58;;;;;;;25.98;5.43;;;;;;;3.38;83.81;103115.94;5034240;28;20049;-60
2022/01/21 04:03:29;;;;;;;30.77;5.32;;;;;;;3.44;83.38;103123.25;5033915;28;20060;-62
2022/01/21 04:05:56;;;;;;;25.65;5.47;;;;;;;3.33;82.99;103118.41;5033440;28;20386;-61
2022/01/21 04:08:24;;;;;;;28.92;5.65;;;;;;;3.37;83.28;103122.41;5016964;28;20054;-58
2022/01/21 04:10:57;;;;;;;23.75;4.95;;;;;;;3.24;83.94;103119.69;5018857;28;20045;-64
2022/01/21 04:13:28;;;;;;;22.58;5.80;;;;;;;3.35;83.77;103124.50;5038154;28;20037;-60
2022/01/21 04:15:59;;;;;;;21.70;4.97;;;;;;;3.46;82.90;103129.34;5050164;28;20072;-60
2022/01/21 04:18:30;;;;;;;19.73;4.95;;;;;;;3.32;83.10;103125.78;5040952;28;20047;-58
2022/01/21 04:21:00;;;;;;;29.17;5.88;;;;;;;3.13;84.18;103139.34;5042074;28;20052;-61
2022/01/21 04:23:29;;;;;;;16.88;4.63;;;;;;;3.24;84.09;103127.84;5033778;28;20052;-61
2022/01/21 04:25:57;;;;;;;21.70;4.47;;;;;;;3.18;83.92;103151.28;5016761;28;20056;-60
2022/01/21 04:28:24;;;;;;;23.92;5.75;;;;;;;3.28;84.01;103143.56;5034175;28;20056;-61
2022/01/21 04:30:52;;;;;;;17.67;5.22;;;;;;;3.35;83.73;103140.84;5050491;28;20412;-61
2022/01/21 04:33:28;;;;;;;16.75;4.35;;;;;;;3.35;83.72;103149.00;5033760;28;20064;-60
2022/01/21 04:35:59;;;;;;;23.50;5.50;;;;;;;3.43;83.20;103143.38;5033427;28;20053;-58
2022/01/21 04:38:28;;;;;;;22.92;5.47;;;;;;;3.55;82.71;103147.19;5040149;28;20053;-60
2022/01/21 04:49:12;;;;;;;20.52;4.60;;;;;;;3.64;82.67;103143.22;5033535;28;20072;-59
2022/01/21 04:51:48;;;;;;;19.05;4.47;;;;;;;3.66;81.79;103135.63;5016440;28;20053;-60
2022/01/21 04:54:15;;;;;;;24.73;5.13;;;;;;;3.60;81.76;103149.25;5033448;28;20511;-60
2022/01/21 04:56:45;;;;;;;25.75;4.47;;;;;;;3.28;83.10;103140.00;5033527;28;20046;-61
2022/01/21 04:59:12;;;;;;;23.02;5.60;;;;;;;3.26;83.90;103133.94;5016895;28;20076;-60
2022/01/21 05:01:42;;;;;;;26.27;5.18;;;;;;;3.43;83.03;103137.94;5032757;28;20060;-62
2022/01/21 05:04:10;;;;;;;20.20;4.65;;;;;;;3.32;83.30;103144.84;5032952;28;20060;-59
2022/01/21 05:06:37;;;;;;;20.65;6.63;;;;;;;3.40;83.56;103144.63;5032819;28;20058;-60
2022/01/21 05:09:06;;;;;;;21.02;4.88;;;;;;;3.55;82.39;103140.88;5000513;28;20057;-56
2022/01/21 05:11:37;;;;;;;22.83;4.80;;;;;;;3.72;82.16;103153.03;4998410;28;20049;-62
2022/01/21 05:14:18;;;;;;;;;;;;;;;3.76;80.97;103151.59;5044253;28;20053;-62
2022/01/21 05:17:02;;;;;;;24.83;4.65;;;;;;;3.70;81.42;103155.13;5025796;28;19925;-60
2022/01/21 05:19:30;;;;;;;22.63;5.25;;;;;;;3.75;81.64;103153.47;5034365;28;20057;-62
2022/01/21 05:22:15;;;;;;;24.38;5.57;;;;;;;3.22;83.24;103151.72;5032955;28;20045;-59
2022/01/21 05:24:46;;;;;;;23.02;4.55;;;;;;;3.15;84.13;103150.88;5017402;28;20064;-60
2022/01/21 05:27:14;;;;;;;24.70;5.68;;;;;;;3.36;83.55;103153.44;5033215;28;20084;-60
2022/01/21 05:29:45;;;;;;;16.35;4.10;;;;;;;3.27;82.76;103157.38;5035807;28;20050;-60
2022/01/21 05:32:23;;;;;;;25.27;4.47;;;;;;;3.32;82.92;103144.00;5038289;28;20053;-60
2022/01/21 05:35:09;;;;;;;18.42;4.70;;;;;;;3.34;83.55;103152.78;5037054;28;20049;-62
2022/01/21 05:37:43;;;;;;;20.15;4.68;;;;;;;3.47;82.64;103157.44;5037188;28;20489;-63
2022/01/21 05:40:45;;;;;;;19.52;5.05;;;;;;;3.34;82.96;103161.81;4999942;28;20061;-63
2022/01/21 05:43:46;;;;;;;20.98;5.07;;;;;;;3.17;83.77;103163.22;5006174;28;20069;-62
2022/01/21 05:46:43;;;;;;;21.15;4.82;;;;;;;3.21;83.62;103161.78;5017171;28;20046;-61
2022/01/21 05:49:30;;;;;;;18.00;4.45;;;;;;;3.40;83.63;103171.03;5018299;28;20050;-63
2022/01/21 05:52:28;;;;;;;18.90;4.25;;;;;;;3.54;82.33;103171.91;4998799;28;20066;-61
2022/01/21 05:55:17;;;;;;;14.80;4.00;;;;;;;3.36;83.00;103170.59;5017376;28;20064;-61
2022/01/21 05:58:08;;;;;;;16.33;4.25;;;;;;;3.34;83.26;103169.13;5025606;28;20399;-62
2022/01/21 06:00:37;;;;;;;25.10;4.47;;;;;;;3.63;82.87;103171.50;5033244;28;20428;-62
2022/01/21 06:03:05;;;;;;;22.30;4.90;;;;;;;3.73;81.00;103177.38;5019888;28;20053;-62
2022/01/21 06:05:33;;;;;;;20.23;4.15;;;;;;;3.68;81.18;103184.50;5036224;28;20408;-62
2022/01/21 06:08:04;;;;;;;22.35;4.40;;;;;;;3.43;82.03;103184.25;5053019;28;20152;-63
2022/01/21 06:10:32;;;;;;;20.25;4.47;;;;;;;3.32;82.79;103184.84;5035726;28;20646;-64
2022/01/21 06:12:59;;;;;;;18.98;4.18;;;;;;;3.36;82.64;103192.38;5037513;28;20049;-61
2022/01/21 06:15:26;;;;;;;18.52;4.45;;;;;;;3.60;82.28;103181.97;5036529;28;20045;-63
2022/01/21 06:17:54;;;;;;;19.08;4.50;;;;;;;3.58;81.66;103187.63;5036928;28;20056;-63
2022/01/21 06:20:21;;;;;;;24.90;4.18;;;;;;;3.73;81.07;103188.25;5035607;28;20053;-61
2022/01/21 06:22:49;;;;;;;18.33;4.32;;;;;;;3.79;81.08;103179.28;5036955;28;20068;-62
2022/01/21 06:25:16;;;;;;;20.77;4.45;;;;;;;3.67;80.65;103177.38;5035752;28;20049;-63
2022/01/21 06:27:45;;;;;;;20.42;4.30;;;;;;;3.43;81.96;103185.06;5036780;28;20045;-61
2022/01/21 06:30:13;;;;;;;17.52;4.72;;;;;;;3.63;82.00;103182.38;5032199;28;20056;-62
2022/01/21 06:32:41;;;;;;;21.05;4.43;;;;;;;3.63;81.25;103174.22;5035929;28;20362;-64
2022/01/21 06:35:10;;;;;;;18.02;4.70;;;;;;;3.47;81.92;103182.78;5019089;28;20053;-62
2022/01/21 06:37:37;;;;;;;17.30;4.03;;;;;;;3.53;82.41;103175.66;5037229;28;20053;-62
2022/01/21 06:40:07;;;;;;;24.65;4.75;;;;;;;3.49;82.28;103183.41;5036128;28;20064;-62
2022/01/21 06:42:34;;;;;;;20.77;4.53;;;;;;;3.43;82.13;103178.81;5052845;28;20056;-62
2022/01/21 06:45:03;;;;;;;17.05;4.35;;;;;;;3.55;81.88;103185.31;5038701;28;20044;-62
2022/01/21 06:47:31;;;;;;;20.48;4.53;;;;;;;3.84;81.73;103194.97;5031654;28;20056;-62
2022/01/21 06:49:58;;;;;;;15.95;4.20;;;;;;;3.89;80.39;103190.59;5030144;28;20056;-62
2022/01/21 06:52:27;;;;;;;17.02;4.22;;;;;;;3.93;80.19;103193.75;5046154;28;20052;-63
2022/01/21 06:54:59;;;;;;;29.40;5.60;;;;;;;3.69;80.49;103194.34;5034680;28;20056;-61
2022/01/21 06:57:27;;;;;;;19.25;4.22;;;;;;;3.70;81.18;103194.13;5047667;28;20395;-63
2022/01/21 06:59:55;;;;;;;22.80;4.95;;;;;;;3.78;80.76;103195.84;5048032;28;20061;-62
2022/01/21 07:02:22;;;;;;;18.27;4.07;;;;;;;3.70;81.17;103202.31;5016798;28;20046;-62
2022/01/21 07:04:50;;;;;;;18.52;5.30;;;;;;;3.83;80.93;103202.34;5025234;28;20061;-63
2022/01/21 07:07:20;;;;;;;17.60;4.75;;;;;;;3.91;80.92;103207.59;5033965;28;20049;-62
2022/01/21 07:09:47;;;;;;;21.27;4.35;;;;;;;3.61;81.57;103206.28;5034819;28;20065;-61
2022/01/21 07:12:15;;;;;;;17.33;4.30;;;;;;;3.87;80.95;103203.59;5035204;28;20064;-62
2022/01/21 07:14:42;;;;;;;23.98;4.45;;;;;;;3.81;80.97;103212.63;5031175;28;20501;-62
2022/01/21 07:17:10;;;;;;;23.30;4.63;;;;;;;3.73;81.20;103222.88;5032684;28;20065;-63
2022/01/21 07:19:37;;;;;;;22.17;4.68;;;;;;;3.75;81.71;103221.59;5035413;28;20084;-64
2022/01/21 07:22:05;;;;;;;26.52;4.80;;;;;;;3.76;81.40;103219.72;5029088;28;20061;-61
2022/01/21 07:24:32;;;;;;;18.13;5.03;;;;;;;4.00;80.79;103221.84;5026945;28;20531;-63
2022/01/21 07:26:59;;;;;;;15.75;5.03;;;;;;;3.68;81.50;103228.94;5015895;28;20053;-63
2022/01/21 07:29:27;;;;;;;15.20;4.15;;;;;;;3.86;81.06;103225.59;5031473;28;20065;-62
2022/01/21 07:31:54;;;;;;;16.73;4.50;;;;;;;3.77;80.99;103233.16;5034072;28;20041;-62
2022/01/21 07:34:24;;;;;;;18.52;4.60;;;;;;;3.92;81.69;103231.09;5035604;28;20053;-62
2022/01/21 07:36:53;;;;;;;27.97;4.97;;;;;;;4.03;80.45;103235.91;5029280;28;20516;-62
2022/01/21 07:39:20;;;;;;;20.47;5.83;;;;;;;3.72;81.61;103232.94;5029157;28;20059;-62
2022/01/21 07:41:49;;;;;;;20.80;5.10;;;;;;;3.81;81.77;103245.31;5030176;28;20064;-63
2022/01/21 07:44:17;;;;;;;17.83;4.30;;;;;;;3.80;81.58;103240.09;5034821;28;20049;-63
2022/01/21 07:46:45;;;;;;;22.23;4.85;;;;;;;3.71;81.57;103235.88;5033845;28;20046;-64
2022/01/21 07:49:13;;;;;;;17.75;5.45;;;;;;;3.95;81.82;103247.03;5035352;28;20049;-58
2022/01/21 07:51:41;;;;;;;28.38;5.00;;;;;;;3.75;81.56;103246.13;5034165;28;20053;-59
2022/01/21 07:54:09;;;;;;;19.75;5.18;;;;;;;3.75;82.53;103251.59;5026351;28;20058;-59
2022/01/21 07:56:36;;;;;;;24.02;5.93;;;;;;;3.63;82.29;103258.69;5028432;28;20061;-61
2022/01/21 07:59:10;;;;;;;19.42;4.40;;;;;;;3.80;82.28;103259.97;5014529;28;20064;-60
2022/01/21 08:01:38;;;;;;;23.50;5.10;;;;;;;4.24;81.35;103264.84;5015215;28;20586;-60
2022/01/21 08:04:06;;;;;;;14.68;4.10;;;;;;;4.21;80.37;103255.22;5029856;28;20049;-61
2022/01/21 08:06:34;;;;;;;19.95;4.70;;;;;;;4.20;80.68;103258.97;5026291;28;20096;-57
2022/01/21 08:09:03;;;;;;;19.63;5.13;;;;;;;4.36;79.84;103260.44;5029008;28;20049;-60
2022/01/21 08:11:31;;;;;;;23.10;4.55;;;;;;;4.60;79.71;103263.38;5011767;28;20057;-58
2022/01/21 08:13:59;;;;;;;21.90;6.65;;;;;;;3.75;81.35;103269.84;5030915;28;20803;-59
2022/01/21 08:16:26;;;;;;;22.88;5.90;;;;;;;3.76;82.79;103271.53;5029917;28;20045;-60
2022/01/21 08:18:54;;;;;;;21.42;6.43;;;;;;;4.07;81.20;103280.81;5033655;28;20049;-61
2022/01/21 08:21:21;;;;;;;29.23;6.30;;;;;;;4.33;80.88;103272.63;5033707;28;20056;-58
2022/01/21 08:23:53;;;;;;;25.20;6.35;;;;;;;4.38;80.18;103274.72;5031507;28;20076;-58
2022/01/21 08:26:24;;;;;;;22.25;5.68;;;;;;;4.42;79.78;103274.13;4995419;28;20053;-59
2022/01/21 08:28:52;;;;;;;34.40;6.13;;;;;;;4.55;79.40;103271.34;5031275;28;20056;-58
2022/01/21 08:31:20;;;;;;;31.80;5.93;;;;;;;4.39;79.38;103279.97;5034015;28;20057;-62
2022/01/21 08:33:48;;;;;;;23.70;6.53;;;;;;;3.98;80.41;103275.75;5012763;28;20050;-59
2022/01/21 08:36:18;;;;;;;25.48;6.57;;;;;;;4.17;80.64;103270.31;5033129;28;20048;-60
2022/01/21 08:38:45;;;;;;;;;;;;;;;4.22;80.64;103272.44;5033985;28;20041;-61
2022/01/21 08:41:12;;;;;;;20.88;5.45;;;;;;;4.43;80.43;103273.06;5032806;28;19921;-63
2022/01/21 08:43:40;;;;;;;24.92;7.00;;;;;;;4.08;80.23;103281.66;5030329;28;20065;-61
2022/01/21 08:46:07;;;;;;;25.90;5.95;;;;;;;4.36;80.39;103274.94;5010622;28;20057;-60
2022/01/21 08:48:35;;;;;;;26.63;6.35;;;;;;;4.44;79.44;103273.91;5028808;28;20405;-59
2022/01/21 08:51:08;;;;;;;29.75;5.85;;;;;;;4.46;79.34;103272.63;5032739;28;20540;-62
2022/01/21 08:53:38;;;;;;;23.67;6.10;;;;;;;4.32;79.89;103284.59;5031112;28;20053;-59
2022/01/21 08:56:13;;;;;;;31.70;6.28;;;;;;;4.37;80.15;103283.97;5030842;28;20404;-61
2022/01/21 08:58:41;;;;;;;21.17;5.80;;;;;;;4.47;79.13;103284.38;5032481;28;20061;-62
2022/01/21 09:01:10;;;;;;;20.65;6.13;;;;;;;4.66;78.80;103280.78;5027868;28;20424;-59
2022/01/21 09:03:39;;;;;;;21.08;6.05;;;;;;;4.62;78.36;103279.53;5034829;28;20069;-59
2022/01/21 09:06:07;;;;;;;27.52;6.50;;;;;;;4.29;80.05;103281.44;5035342;28;20049;-61
2022/01/21 09:08:34;;;;;;;21.95;6.05;;;;;;;4.17;80.49;103292.13;5036979;28;20037;-60
2022/01/21 09:11:04;;;;;;;21.38;5.70;;;;;;;4.14;80.41;103273.47;5029527;28;20038;-61
2022/01/21 09:13:38;;;;;;;21.80;5.63;;;;;;;4.08;80.88;103287.13;5023995;28;20053;-58
2022/01/21 09:16:06;;;;;;;24.25;6.15;;;;;;;4.24;80.72;103282.06;5033400;28;20487;-60
2022/01/21 09:18:45;;;;;;;25.05;6.43;;;;;;;4.21;81.19;103289.84;5038376;28;20061;-60
2022/01/21 09:21:35;;;;;;;26.98;6.68;;;;;;;4.39;79.80;103285.41;5036485;28;20068;-60
2022/01/21 09:24:04;;;;;;;32.55;6.90;;;;;;;3.99;81.94;103280.16;5020631;28;20050;-62
2022/01/21 09:26:31;;;;;;;32.87;7.77;;;;;;;4.77;83.04;103287.50;5036559;28;20057;-63
2022/01/21 09:29:00;;;;;;;22.48;6.57;;;;;;;4.27;80.27;103289.84;5055168;28;20041;-61
2022/01/21 09:31:27;;;;;;;23.55;7.15;;;;;;;4.10;81.58;103298.63;5057865;28;20049;-60
2022/01/21 09:34:15;;;;;;;28.45;6.90;;;;;;;4.17;81.80;103300.31;5023595;28;20068;-60
2022/01/21 09:36:42;;;;;;;28.48;7.03;;;;;;;4.26;81.75;103301.81;5037024;28;20049;-62
2022/01/21 09:39:10;;;;;;;24.73;7.50;;;;;;;4.25;81.26;103311.03;5037542;28;20046;-63
2022/01/21 09:41:37;;;;;;;25.02;7.35;;;;;;;4.02;82.85;103317.91;5049499;28;20403;-60
2022/01/21 09:44:10;;;;;;;25.88;7.63;;;;;;;4.13;81.90;103312.69;5036030;28;20045;-59
2022/01/21 09:46:42;;;;;;;21.17;7.60;;;;;;;4.50;80.77;103324.88;5028527;28;20057;-62
2022/01/21 09:51:50;;;;;;;27.67;7.80;;;;;;;3.77;82.60;103325.81;5037271;28;20060;-61
2022/01/21 09:54:18;;;;;;;27.55;8.07;;;;;;;3.92;83.28;103340.16;5021194;28;20069;-62
2022/01/21 09:56:47;;;;;;;29.48;7.65;;;;;;;3.90;83.04;103347.69;5032854;28;20155;-61
2022/01/21 09:59:18;;;;;;;22.67;7.90;;;;;;;3.74;83.49;103339.88;5035756;28;20058;-62
2022/01/21 10:02:02;;;;;;;21.85;7.90;;;;;;;3.72;84.17;103339.22;5004005;28;20053;-62
2022/01/21 10:04:35;;;;;;;22.48;8.88;;;;;;;3.93;84.18;103343.69;5036948;28;20053;-62
2022/01/21 10:07:04;;;;;;;26.48;8.10;;;;;;;4.04;83.32;103346.69;5034058;28;20049;-59
2022/01/21 10:09:31;;;;;;;27.38;9.02;;;;;;;4.13;82.62;103348.16;5036312;28;20053;-62
2022/01/21 10:11:59;;;;;;;21.63;8.30;;;;;;;3.98;83.30;103344.75;5032312;28;20797;-62
2022/01/21 10:14:28;;;;;;;26.90;8.38;;;;;;;3.76;84.55;103348.69;5012781;28;20068;-62
2022/01/21 10:16:58;;;;;;;31.58;9.38;;;;;;;3.88;84.51;103341.59;5029313;28;20531;-61
2022/01/21 10:19:31;;;;;;;34.17;9.85;;;;;;;4.51;83.47;103340.22;5034479;28;20065;-62
2022/01/21 10:21:59;;;;;;;34.28;9.20;;;;;;;4.82;82.71;103345.03;5017994;28;20124;-60
2022/01/21 10:24:26;;;;;;;31.23;8.55;;;;;;;4.75;81.83;103342.31;5030730;28;20041;-61
2022/01/21 10:26:55;;;;;;;29.75;9.05;;;;;;;4.59;81.68;103340.00;5035035;28;20412;-61
2022/01/21 10:29:23;;;;;;;34.55;10.13;;;;;;;4.63;82.39;103329.50;5035926;28;20045;-62
2022/01/21 10:31:57;;;;;;;25.27;7.85;;;;;;;4.60;81.20;103338.97;5034486;28;20049;-61
2022/01/21 10:34:29;;;;;;;29.30;9.30;;;;;;;4.84;81.56;103340.22;5034378;28;20037;-63
2022/01/21 10:37:05;;;;;;;34.85;9.20;;;;;;;4.74;81.30;103337.94;5035731;28;20053;-62
2022/01/21 10:39:53;;;;;;;32.50;8.60;;;;;;;4.23;82.17;103347.75;5034519;28;20487;-61
2022/01/21 10:42:22;;;;;;;25.00;8.45;;;;;;;4.41;81.97;103345.28;5031073;28;20179;-60
2022/01/21 10:44:50;;;;;;;21.83;9.07;;;;;;;4.41;81.84;103340.63;5034177;28;20041;-61
2022/01/21 10:47:18;;;;;;;25.60;10.00;;;;;;;4.84;81.74;103341.06;5035745;28;20439;-62
2022/01/21 10:49:58;;;;;;;30.00;9.30;;;;;;;5.22;80.04;103346.66;5033334;28;20500;-62
2022/01/21 10:52:29;;;;;;;;;;;;;;;4.91;79.80;103343.78;5029214;28;20049;-62
2022/01/21 10:54:56;;;;;;;21.83;9.30;;;;;;;4.69;80.78;103342.34;5027778;28;19921;-62
2022/01/21 10:57:25;;;;;;;38.50;10.95;;;;;;;4.53;81.88;103336.22;5033688;28;20060;-60
2022/01/21 11:00:02;;;;;;;25.13;10.68;;;;;;;4.35;81.67;103338.75;5034788;28;20060;-57
2022/01/21 11:02:36;;;;;;;31.73;10.85;;;;;;;4.59;82.24;103340.00;5027602;28;20083;-61
2022/01/21 11:05:10;;;;;;;32.60;9.88;;;;;;;4.79;82.73;103338.13;5036703;28;20048;-60
2022/01/21 11:08:12;;;;;;;29.48;10.07;;;;;;;4.87;81.42;103328.84;5034966;28;20056;-61
2022/01/21 11:10:47;;;;;;;30.58;9.25;;;;;;;4.89;80.44;103333.06;5033827;28;20061;-59
2022/01/21 11:13:16;;;;;;;26.90;9.18;;;;;;;4.51;81.80;103324.72;5032758;28;20056;-62
2022/01/21 11:15:46;;;;;;;42.90;16.52;;;;;;;4.63;81.39;103330.34;5039762;28;20053;-60
2022/01/21 11:18:30;;;;;;;25.83;9.88;;;;;;;4.62;80.81;103336.03;5024013;28;20493;-59
2022/01/21 11:21:07;;;;;;;32.38;11.77;;;;;;;4.81;81.05;103332.44;5034782;28;20049;-60
2022/01/21 11:23:36;;;;;;;25.92;9.48;;;;;;;4.69;80.26;103332.22;5033187;28;20073;-63
2022/01/21 11:26:09;;;;;;;26.52;8.93;;;;;;;4.76;80.96;103334.97;5032605;28;20056;-61
2022/01/21 11:28:37;;;;;;;31.98;9.75;;;;;;;4.90;80.27;103340.19;5031941;28;20053;-62
2022/01/21 11:31:04;;;;;;;30.05;9.25;;;;;;;4.93;80.34;103330.75;5031018;28;20045;-62
2022/01/21 11:33:32;;;;;;;25.95;9.43;;;;;;;4.99;80.09;103329.88;5039369;28;20056;-60
2022/01/21 11:36:00;;;;;;;31.77;10.02;;;;;;;4.79;79.87;103329.09;5032399;28;20041;-60
2022/01/21 11:38:29;;;;;;;30.63;10.32;;;;;;;4.86;79.71;103328.03;5032223;28;20041;-60
2022/01/21 11:40:56;;;;;;;36.72;11.82;;;;;;;4.61;80.69;103327.00;5028432;28;20057;-61
2022/01/21 11:43:24;;;;;;;39.72;15.20;;;;;;;4.97;80.28;103327.38;5030825;28;20041;-59
2022/01/21 11:48:55;;;;;;;33.53;12.38;;;;;;;4.64;81.32;103318.38;5041711;28;20064;-61
2022/01/21 11:51:32;;;;;;;32.28;10.13;;;;;;;4.64;80.69;103318.38;5029697;28;20077;-61
2022/01/21 11:54:05;;;;;;;30.08;9.68;;;;;;;5.04;80.71;103317.28;5036102;28;20515;-62
2022/01/21 11:56:46;;;;;;;31.38;10.90;;;;;;;5.10;79.30;103308.25;5036297;28;20064;-61
2022/01/21 12:01:53;;;;;;;35.57;10.40;;;;;;;5.16;78.77;103312.81;5025851;28;20049;-62
2022/01/21 12:04:29;;;;;;;31.65;10.43;;;;;;;5.33;78.58;103316.78;5033029;28;20060;-61
2022/01/21 12:06:58;;;;;;;21.60;8.50;;;;;;;5.03;78.79;103315.59;5027593;28;20065;-61
2022/01/21 12:09:53;;;;;;;23.55;7.65;;;;;;;5.21;78.00;103315.75;5033213;28;20041;-63
2022/01/21 12:12:22;;;;;;;27.23;9.25;;;;;;;5.14;78.80;103308.66;5032529;28;20049;-61
2022/01/21 12:14:56;;;;;;;24.20;7.60;;;;;;;5.32;77.63;103306.91;5013588;28;20064;-62
2022/01/21 12:17:48;;;;;;;23.63;7.97;;;;;;;5.17;77.87;103308.22;5033328;28;20083;-61
2022/01/21 12:20:16;;;;;;;29.17;7.93;;;;;;;5.08;77.52;103317.69;5032056;28;20049;-61
2022/01/21 12:22:43;;;;;;;30.67;8.55;;;;;;;5.04;77.81;103313.72;5029610;28;20062;-59
2022/01/21 12:25:12;;;;;;;23.52;10.23;;;;;;;4.82;79.28;103315.00;5025700;28;20054;-64
2022/01/21 12:27:40;;;;;;;35.70;9.35;;;;;;;4.81;79.77;103305.16;5029585;28;20042;-61
2022/01/21 12:30:20;;;;;;;36.28;8.38;;;;;;;5.05;79.49;103297.13;5024881;28;20380;-62
2022/01/21 12:32:52;;;;;;;26.27;8.93;;;;;;;5.03;78.92;103290.19;5027864;28;20053;-60
2022/01/21 12:35:38;;;;;;;25.67;7.72;;;;;;;5.12;78.24;103286.16;5034002;28;20057;-61
2022/01/21 12:41:06;;;;;;;46.58;14.25;;;;;;;5.61;77.43;103278.19;5011051;28;20061;-60
2022/01/21 12:43:40;;;;;;;24.55;9.27;;;;;;;4.98;78.55;103279.06;5032548;28;20056;-61
2022/01/21 12:46:16;;;;;;;25.17;8.45;;;;;;;5.25;78.46;103280.66;5033858;28;20052;-61